Time;durP1;ratioP1;P1;durP2;ratioP2;P2;SDS_P1;SDS_P2;PMS_P1;PMS_P2;Temp;Humidity;BMP_temperature;BMP_pressure;BME280_temperature;BME280_humidity;BME280_pressure;Samples;Min_cycle;Max_cycle;Signal;HPM_P1;HPM_P2
2023/01/30 00:00:30;;;;;;;38.95;23.92;;;6.00;99.90;;;;;;5056410;28;20180;-85
2023/01/30 00:02:56;;;;;;;37.28;22.35;;;6.00;99.90;;;;;;5074605;28;20040;-85
2023/01/30 00:05:22;;;;;;;39.15;23.85;;;6.00;99.90;;;;;;5057392;28;20047;-85
2023/01/30 00:07:48;;;;;;;39.38;23.33;;;6.00;99.90;;;;;;5057153;28;20040;-84
2023/01/30 00:10:14;;;;;;;36.28;22.77;;;7.20;99.90;;;;;;5107333;28;20101;-85
2023/01/30 00:12:39;;;;;;;35.05;21.40;;;6.10;99.90;;;;;;5073543;28;20426;-85
2023/01/30 00:15:06;;;;;;;37.03;23.05;;;6.80;99.90;;;;;;5071898;28;20062;-84
2023/01/30 00:17:32;;;;;;;39.63;22.98;;;6.10;99.90;;;;;;5032286;28;20046;-85
2023/01/30 00:19:57;;;;;;;38.80;20.90;;;6.20;99.90;;;;;;5073116;28;20123;-85
2023/01/30 00:22:23;;;;;;;34.65;23.40;;;6.10;99.90;;;;;;5072966;28;20039;-85
2023/01/30 00:24:49;;;;;;;35.83;22.20;;;6.10;99.90;;;;;;5057707;28;20051;-85
2023/01/30 00:27:15;;;;;;;31.30;21.08;;;6.50;99.90;;;;;;5074636;28;20404;-85
2023/01/30 00:29:41;;;;;;;30.17;20.08;;;6.80;99.90;;;;;;5072888;28;20118;-85
2023/01/30 00:32:06;;;;;;;36.92;22.38;;;6.10;99.90;;;;;;5055842;28;20059;-84
2023/01/30 00:34:32;;;;;;;38.20;21.08;;;6.20;99.90;;;;;;5074121;28;20059;-84
2023/01/30 00:36:59;;;;;;;34.45;20.48;;;6.50;99.90;;;;;;5063592;28;20125;-84
2023/01/30 00:39:24;;;;;;;42.65;21.70;;;6.20;99.90;;;;;;5102213;28;20108;-84
2023/01/30 00:47:20;;;;;;;29.58;18.40;;;6.80;99.90;;;;;;5076041;28;20044;-85
2023/01/30 00:49:45;;;;;;;32.38;18.30;;;6.40;99.90;;;;;;5057592;28;20036;-84
2023/01/30 00:52:11;;;;;;;27.63;16.65;;;6.30;99.90;;;;;;5059714;28;20494;-84
2023/01/30 00:54:37;;;;;;;29.83;16.50;;;6.30;99.90;;;;;;5076262;28;20044;-83
2023/01/30 00:57:02;;;;;;;24.05;15.52;;;6.70;99.90;;;;;;5072996;28;20472;-85
2023/01/30 00:59:28;;;;;;;29.58;15.77;;;6.90;99.90;;;;;;5057324;28;20043;-85
2023/01/30 01:01:54;;;;;;;25.75;14.18;;;6.50;99.90;;;;;;5056298;28;20069;-85
2023/01/30 01:04:20;;;;;;;26.92;13.82;;;7.00;99.90;;;;;;5074196;28;20040;-84
2023/01/30 01:06:45;;;;;;;21.80;12.75;;;6.60;99.90;;;;;;5071462;28;20496;-84
2023/01/30 01:09:11;;;;;;;24.80;13.55;;;6.60;99.90;;;;;;5072899;28;20115;-84
2023/01/30 01:11:37;;;;;;;24.05;13.73;;;6.70;99.90;;;;;;5071617;28;20050;-85
2023/01/30 01:14:04;;;;;;;21.05;12.90;;;6.60;99.90;;;;;;5040090;28;20036;-84
2023/01/30 01:16:32;;;;;;;25.20;13.43;;;6.70;99.90;;;;;;5090758;28;20113;-85
2023/01/30 01:18:58;;;;;;;28.45;14.07;;;7.20;99.90;;;;;;5073857;28;20044;-84
2023/01/30 01:21:24;;;;;;;26.42;13.20;;;6.60;99.90;;;;;;5072599;28;20040;-85
2023/01/30 01:23:51;;;;;;;20.67;11.63;;;6.60;99.90;;;;;;5090066;28;20101;-85
2023/01/30 01:26:17;;;;;;;23.75;10.25;;;6.60;99.90;;;;;;5055901;28;20399;-85
2023/01/30 01:28:43;;;;;;;26.38;11.60;;;6.70;99.90;;;;;;5073092;28;20039;-85
2023/01/30 01:31:10;;;;;;;28.33;12.85;;;6.60;99.90;;;;;;5072577;28;20062;-85
2023/01/30 01:33:36;;;;;;;21.70;11.15;;;6.50;99.90;;;;;;5073259;28;20051;-84
2023/01/30 01:36:02;;;;;;;24.75;11.98;;;7.10;99.90;;;;;;5086097;28;20059;-84
2023/01/30 01:38:28;;;;;;;17.42;10.45;;;6.50;99.90;;;;;;5072143;28;20139;-84
2023/01/30 01:41:04;;;;;;;18.35;9.93;;;6.60;99.90;;;;;;5071138;28;20032;-84
2023/01/30 01:43:58;;;;;;;19.75;8.75;;;6.50;99.90;;;;;;5042175;28;20052;-84
2023/01/30 01:46:37;;;;;;;16.98;8.18;;;6.50;99.90;;;;;;5071914;28;20043;-84
2023/01/30 01:49:12;;;;;;;16.05;7.20;;;6.50;99.90;;;;;;5072740;28;20043;-84
2023/01/30 01:51:59;;;;;;;20.27;7.38;;;6.60;99.90;;;;;;5088258;28;20059;-84
2023/01/30 01:54:30;;;;;;;19.30;7.38;;;7.20;99.90;;;;;;5065910;28;20045;-84
2023/01/30 01:56:58;;;;;;;21.40;7.25;;;6.60;99.90;;;;;;5072493;28;20560;-84
2023/01/30 01:59:50;;;;;;;24.13;6.97;;;6.50;99.90;;;;;;5073634;28;20028;-83
2023/01/30 02:02:16;;;;;;;17.65;6.32;;;6.60;99.90;;;;;;5078674;28;20083;-83
2023/01/30 02:05:01;;;;;;;22.05;6.97;;;6.60;99.90;;;;;;5073588;28;20044;-84
2023/01/30 02:07:54;;;;;;;23.50;5.97;;;6.60;99.90;;;;;;5073889;28;20154;-83
2023/01/30 02:10:35;;;;;;;15.38;5.95;;;6.60;99.90;;;;;;5098066;28;20495;-84
2023/01/30 02:13:01;;;;;;;16.25;5.40;;;6.60;99.90;;;;;;5071676;28;20093;-83
2023/01/30 02:15:27;;;;;;;18.40;5.45;;;6.60;99.90;;;;;;5072375;28;20036;-83
2023/01/30 02:17:52;;;;;;;13.50;5.45;;;6.60;99.90;;;;;;5057585;28;20044;-83
2023/01/30 02:20:55;;;;;;;13.48;4.47;;;7.00;99.90;;;;;;5074590;28;20035;-83
2023/01/30 02:23:51;;;;;;;13.15;4.72;;;6.60;99.90;;;;;;5077024;28;20177;-83
2023/01/30 02:26:32;;;;;;;14.57;5.35;;;6.60;99.90;;;;;;5094446;28;20040;-83
2023/01/30 02:29:22;;;;;;;17.40;4.57;;;6.60;99.90;;;;;;5077105;28;20076;-84
2023/01/30 02:32:12;;;;;;;13.07;4.45;;;6.60;99.90;;;;;;5077073;28;20040;-84
2023/01/30 02:34:47;;;;;;;11.63;4.60;;;6.60;99.90;;;;;;5076712;28;20483;-84
2023/01/30 02:37:44;;;;;;;14.98;5.43;;;6.50;99.90;;;;;;5084042;28;20044;-87
2023/01/30 02:40:39;;;;;;;13.80;4.50;;;6.60;99.90;;;;;;5082620;28;20036;-86
2023/01/30 02:43:05;;;;;;;16.73;4.63;;;6.60;99.90;;;;;;5048131;28;20399;-85
2023/01/30 02:45:30;;;;;;;15.52;5.05;;;6.60;99.90;;;;;;5062215;28;20036;-84
2023/01/30 02:48:03;;;;;;;21.75;5.00;;;6.60;99.90;;;;;;5075899;28;20036;-85
2023/01/30 02:50:36;;;;;;;15.13;6.25;;;6.60;99.90;;;;;;5093961;28;20039;-85
2023/01/30 02:53:04;;;;;;;17.10;4.80;;;6.60;99.90;;;;;;5065752;28;20066;-84
2023/01/30 02:55:29;;;;;;;17.17;5.55;;;6.60;99.90;;;;;;5058914;28;20040;-85
2023/01/30 02:57:56;;;;;;;20.13;5.32;;;6.20;99.90;;;;;;5050932;28;20089;-85
2023/01/30 03:00:41;;;;;;;10.15;4.22;;;6.50;99.90;;;;;;5063616;28;20069;-85
2023/01/30 03:03:14;;;;;;;17.05;5.40;;;6.60;99.90;;;;;;5091584;28;20105;-85
2023/01/30 03:05:46;;;;;;;12.98;5.25;;;6.60;99.90;;;;;;5090395;28;20055;-85
2023/01/30 03:08:40;;;;;;;14.57;5.07;;;6.90;99.90;;;;;;5074377;28;20524;-85
2023/01/30 03:11:08;;;;;;;17.02;5.75;;;6.60;99.90;;;;;;5074621;28;20100;-85
2023/01/30 03:13:55;;;;;;;15.77;5.40;;;6.60;99.90;;;;;;5074363;28;20043;-84
2023/01/30 03:16:40;;;;;;;23.92;5.10;;;6.60;99.90;;;;;;5074197;28;20047;-85
2023/01/30 03:19:10;;;;;;;17.27;5.05;;;6.60;99.90;;;;;;5074011;28;20040;-85
2023/01/30 03:21:43;;;;;;;23.38;4.95;;;6.60;99.90;;;;;;5054467;28;20083;-84
2023/01/30 03:24:10;;;;;;;20.88;4.38;;;6.60;99.90;;;;;;5056239;28;20104;-85
2023/01/30 03:26:43;;;;;;;19.50;4.35;;;7.00;99.90;;;;;;5073988;28;20049;-85
2023/01/30 03:29:09;;;;;;;15.68;4.32;;;6.60;99.90;;;;;;5091835;28;20043;-85
2023/01/30 03:31:35;;;;;;;18.70;5.55;;;6.70;99.90;;;;;;5057694;28;20040;-85
2023/01/30 03:34:00;;;;;;;14.18;5.03;;;6.60;99.90;;;;;;5038508;28;20040;-84
2023/01/30 03:36:26;;;;;;;16.88;4.95;;;6.60;99.90;;;;;;5056802;28;20062;-84
2023/01/30 03:38:52;;;;;;;17.05;5.40;;;6.60;99.90;;;;;;5073593;28;20051;-84
2023/01/30 03:41:18;;;;;;;22.52;5.18;;;7.30;99.90;;;;;;5056570;28;20032;-85
2023/01/30 03:43:45;;;;;;;19.20;4.80;;;6.60;99.90;;;;;;5074899;28;20046;-85
2023/01/30 03:46:10;;;;;;;22.30;5.68;;;6.60;99.90;;;;;;5040593;28;20479;-85
2023/01/30 03:48:36;;;;;;;17.95;4.68;;;7.10;99.90;;;;;;5074121;28;20051;-84
2023/01/30 03:51:02;;;;;;;18.90;5.68;;;6.70;99.90;;;;;;5074121;28;20048;-85
2023/01/30 03:53:28;;;;;;;23.58;5.50;;;6.60;99.90;;;;;;5041185;28;20040;-85
2023/01/30 03:55:53;;;;;;;18.40;5.18;;;6.60;99.90;;;;;;5073592;28;20031;-85
2023/01/30 03:58:19;;;;;;;22.40;5.32;;;7.60;99.90;;;;;;5094648;28;20036;-84
2023/01/30 04:00:45;;;;;;;25.23;5.65;;;6.70;99.90;;;;;;5064527;28;20044;-85
2023/01/30 04:03:11;;;;;;;23.67;5.10;;;6.70;99.90;;;;;;5073937;28;20408;-85
2023/01/30 04:05:36;;;;;;;21.67;5.32;;;6.60;99.90;;;;;;5074266;28;20044;-85
2023/01/30 04:08:02;;;;;;;25.50;5.70;;;7.00;99.90;;;;;;5058164;28;20044;-85
2023/01/30 04:10:28;;;;;;;22.98;5.30;;;6.70;99.90;;;;;;5072775;28;20036;-85
2023/01/30 04:12:54;;;;;;;18.42;5.30;;;7.00;99.90;;;;;;5074296;28;21175;-84
2023/01/30 04:15:19;;;;;;;19.05;4.95;;;7.40;99.90;;;;;;5073787;28;20040;-85
2023/01/30 04:17:46;;;;;;;20.15;4.30;;;6.60;99.90;;;;;;5053523;28;20156;-85
2023/01/30 04:20:12;;;;;;;20.50;4.78;;;7.40;99.90;;;;;;5089389;28;20058;-84
2023/01/30 04:22:38;;;;;;;24.33;4.95;;;6.70;99.90;;;;;;5070293;28;20040;-85
2023/01/30 04:25:04;;;;;;;21.15;4.65;;;7.40;99.90;;;;;;5075175;28;20040;-85
2023/01/30 04:27:29;;;;;;;19.33;4.13;;;6.80;99.90;;;;;;5053661;28;20039;-85
2023/01/30 04:29:55;;;;;;;17.25;4.68;;;6.80;99.90;;;;;;5081977;28;20036;-84
2023/01/30 04:32:21;;;;;;;18.70;4.10;;;6.80;99.90;;;;;;5074298;28;20044;-84
2023/01/30 04:34:46;;;;;;;15.15;3.28;;;6.80;99.90;;;;;;5073200;28;20036;-85
2023/01/30 04:37:12;;;;;;;10.48;3.10;;;6.80;99.90;;;;;;5072617;28;20140;-84
2023/01/30 04:39:38;;;;;;;17.23;3.13;;;6.80;99.90;;;;;;5073443;28;20154;-84
2023/01/30 04:42:04;;;;;;;15.32;3.65;;;6.90;99.90;;;;;;5074049;28;20047;-84
2023/01/30 04:44:30;;;;;;;17.33;3.45;;;6.80;99.90;;;;;;5071496;28;20155;-84
2023/01/30 04:46:55;;;;;;;15.20;2.95;;;7.10;99.90;;;;;;5039793;28;20066;-83
2023/01/30 04:49:21;;;;;;;25.83;3.50;;;6.80;99.90;;;;;;5071991;28;20124;-84
2023/01/30 04:51:47;;;;;;;18.25;4.03;;;6.80;99.90;;;;;;5072082;28;20047;-84
2023/01/30 04:54:12;;;;;;;20.10;3.97;;;6.80;99.90;;;;;;5072526;28;20490;-84
2023/01/30 04:56:38;;;;;;;17.38;3.35;;;6.80;99.90;;;;;;5055671;28;20039;-84
2023/01/30 04:59:04;;;;;;;19.40;3.95;;;6.80;99.90;;;;;;5073334;28;20035;-84
2023/01/30 05:01:37;;;;;;;14.63;3.95;;;6.80;99.90;;;;;;5051300;28;20063;-84
2023/01/30 05:04:05;;;;;;;18.35;4.45;;;6.80;99.90;;;;;;5073159;28;20040;-84
2023/01/30 05:06:32;;;;;;;19.05;3.70;;;6.70;99.90;;;;;;5073323;28;20044;-84
2023/01/30 05:08:58;;;;;;;16.25;3.00;;;6.70;99.90;;;;;;5073439;28;20503;-84
2023/01/30 05:11:25;;;;;;;16.88;2.80;;;6.70;99.90;;;;;;5071364;28;20043;-84
2023/01/30 05:13:51;;;;;;;19.67;3.25;;;6.60;99.90;;;;;;5072031;28;20123;-85
2023/01/30 05:16:18;;;;;;;23.60;3.90;;;6.80;99.90;;;;;;5080379;28;20083;-85
2023/01/30 05:18:44;;;;;;;20.80;3.17;;;6.60;99.90;;;;;;5047435;28;20036;-85
2023/01/30 05:21:12;;;;;;;16.92;3.17;;;6.60;99.90;;;;;;5066226;28;20028;-85
2023/01/30 05:23:38;;;;;;;21.63;3.60;;;6.50;99.90;;;;;;5080728;28;20044;-84
2023/01/30 05:26:04;;;;;;;20.67;3.42;;;7.30;99.90;;;;;;5072136;28;20441;-84
2023/01/30 05:28:31;;;;;;;22.70;3.70;;;6.50;99.90;;;;;;5072393;28;20081;-85
2023/01/30 05:31:14;;;;;;;21.30;4.13;;;6.40;99.90;;;;;;5071116;28;20047;-84
2023/01/30 05:33:40;;;;;;;23.77;3.95;;;6.40;99.90;;;;;;5072692;28;20138;-85
2023/01/30 05:36:07;;;;;;;28.52;5.13;;;6.40;99.90;;;;;;5088448;28;20119;-84
2023/01/30 05:38:33;;;;;;;24.98;3.65;;;6.30;99.90;;;;;;5075249;28;20032;-85
2023/01/30 05:41:03;;;;;;;22.52;3.53;;;6.50;99.90;;;;;;5072039;28;20123;-85
2023/01/30 05:43:30;;;;;;;17.20;3.58;;;6.30;99.90;;;;;;5071497;28;20122;-85
2023/01/30 05:45:58;;;;;;;23.83;3.75;;;6.30;99.90;;;;;;5070890;28;20088;-84
2023/01/30 05:48:24;;;;;;;18.75;3.60;;;6.20;99.90;;;;;;5072873;28;20097;-85
2023/01/30 05:50:54;;;;;;;21.45;3.60;;;6.10;99.90;;;;;;5055300;28;20489;-83
2023/01/30 05:53:22;;;;;;;18.77;3.15;;;6.00;99.90;;;;;;5071375;28;20041;-85
2023/01/30 05:56:14;;;;;;;17.27;3.53;;;6.40;99.90;;;;;;5072571;28;20388;-85
2023/01/30 05:58:40;;;;;;;33.05;5.00;;;6.00;99.90;;;;;;5103688;28;20052;-86
2023/01/30 06:01:09;;;;;;;29.90;3.88;;;6.60;99.90;;;;;;5071376;28;20028;-85
2023/01/30 06:03:35;;;;;;;20.58;3.83;;;6.90;99.90;;;;;;5089638;28;20044;-84
2023/01/30 06:06:02;;;;;;;27.48;4.60;;;5.90;99.90;;;;;;5072142;28;20189;-85
2023/01/30 06:08:27;;;;;;;21.60;3.90;;;5.90;99.90;;;;;;5072197;28;20072;-86
2023/01/30 06:10:53;;;;;;;23.60;4.60;;;5.80;99.90;;;;;;5071846;28;20148;-85
2023/01/30 06:13:19;;;;;;;23.23;3.55;;;6.20;99.90;;;;;;5069394;28;20032;-82
2023/01/30 06:15:45;;;;;;;29.42;4.00;;;5.80;99.90;;;;;;5087952;28;20327;-82
2023/01/30 06:18:11;;;;;;;21.30;3.55;;;5.80;99.90;;;;;;5054897;28;20655;-82
2023/01/30 06:20:37;;;;;;;21.45;3.47;;;5.70;99.90;;;;;;5071743;28;20040;-82
2023/01/30 06:23:03;;;;;;;20.92;3.95;;;5.70;99.90;;;;;;5071202;28;20044;-82
2023/01/30 06:25:29;;;;;;;22.13;3.95;;;5.70;99.90;;;;;;5072502;28;20036;-82
2023/01/30 06:27:54;;;;;;;26.73;4.28;;;5.60;99.90;;;;;;5069862;28;20048;-82
2023/01/30 06:30:20;;;;;;;19.45;4.03;;;5.60;99.90;;;;;;5070545;28;20048;-82
2023/01/30 06:32:49;;;;;;;19.80;3.90;;;5.60;99.90;;;;;;5071636;28;20048;-82
2023/01/30 06:35:15;;;;;;;26.13;4.20;;;6.10;99.90;;;;;;5072177;28;20467;-83
2023/01/30 06:37:42;;;;;;;18.85;3.97;;;5.60;99.90;;;;;;5069558;28;20040;-86
2023/01/30 06:40:09;;;;;;;30.20;3.78;;;5.60;99.90;;;;;;5071779;28;20036;-85
2023/01/30 06:42:35;;;;;;;22.73;4.00;;;5.60;99.90;;;;;;5071404;28;20123;-85
2023/01/30 06:45:00;;;;;;;20.90;3.53;;;5.60;99.90;;;;;;5038833;28;20068;-84
2023/01/30 06:47:26;;;;;;;22.50;3.80;;;5.60;99.90;;;;;;5070107;28;20097;-84
2023/01/30 06:49:52;;;;;;;22.73;3.58;;;5.60;99.90;;;;;;5083141;28;20086;-85
2023/01/30 06:52:17;;;;;;;24.17;3.78;;;5.60;99.90;;;;;;5070420;28;20043;-85
2023/01/30 06:54:43;;;;;;;28.50;3.90;;;6.00;99.90;;;;;;5071268;28;20040;-85
2023/01/30 06:57:09;;;;;;;21.60;4.20;;;5.60;99.90;;;;;;5068854;28;20036;-85
2023/01/30 06:59:34;;;;;;;17.52;3.45;;;6.00;99.90;;;;;;5071206;28;20480;-85
2023/01/30 07:02:00;;;;;;;24.67;4.78;;;5.80;99.90;;;;;;5087876;28;20036;-85
2023/01/30 07:04:26;;;;;;;28.27;4.45;;;5.50;99.90;;;;;;5038076;28;20496;-84
2023/01/30 07:06:51;;;;;;;21.27;3.60;;;5.50;99.90;;;;;;5071323;28;20759;-82
2023/01/30 07:09:17;;;;;;;21.58;4.00;;;5.50;99.90;;;;;;5091212;28;20032;-85
2023/01/30 07:11:43;;;;;;;26.52;3.47;;;5.50;99.90;;;;;;5042918;28;20036;-84
2023/01/30 07:14:09;;;;;;;25.73;4.15;;;5.50;99.90;;;;;;5071371;28;20081;-84
2023/01/30 07:16:34;;;;;;;23.42;3.95;;;5.40;99.90;;;;;;5074530;28;20067;-84
2023/01/30 07:19:00;;;;;;;22.95;4.00;;;5.40;99.90;;;;;;5055586;28;20391;-84
2023/01/30 07:21:26;;;;;;;23.10;3.70;;;5.40;99.90;;;;;;5090247;28;20043;-82
2023/01/30 07:23:52;;;;;;;21.92;3.05;;;5.40;99.90;;;;;;5071923;28;20382;-84
2023/01/30 07:26:18;;;;;;;20.98;3.75;;;5.40;99.90;;;;;;5073774;28;20044;-85
2023/01/30 07:28:44;;;;;;;25.02;4.22;;;5.40;99.90;;;;;;5074191;28;20043;-84
2023/01/30 07:31:09;;;;;;;26.33;4.22;;;5.50;99.90;;;;;;5056778;28;20051;-83
2023/01/30 07:33:35;;;;;;;19.08;3.47;;;6.10;99.90;;;;;;5055763;28;20040;-84
2023/01/30 07:36:01;;;;;;;16.10;3.10;;;5.60;99.90;;;;;;5073550;28;20039;-83
2023/01/30 07:38:27;;;;;;;21.95;3.78;;;5.60;99.90;;;;;;5071571;28;20568;-83
2023/01/30 07:40:53;;;;;;;26.50;4.68;;;5.60;99.90;;;;;;5090205;28;20127;-83
2023/01/30 07:43:18;;;;;;;25.83;3.92;;;5.60;99.90;;;;;;5052451;28;20036;-83
2023/01/30 07:45:46;;;;;;;16.05;3.47;;;6.30;99.90;;;;;;5039829;28;20047;-83
2023/01/30 07:48:15;;;;;;;25.65;3.83;;;5.60;99.90;;;;;;5072181;28;20506;-83
2023/01/30 07:50:41;;;;;;;33.58;5.20;;;5.60;99.90;;;;;;5073976;28;20051;-83
2023/01/30 07:53:09;;;;;;;22.17;3.50;;;6.40;99.90;;;;;;5065581;28;20043;-83
2023/01/30 07:55:35;;;;;;;21.80;3.80;;;5.70;99.90;;;;;;5097907;28;20052;-84
2023/01/30 07:58:01;;;;;;;27.67;4.43;;;5.70;99.90;;;;;;5072833;28;20036;-84
2023/01/30 08:00:27;;;;;;;26.60;3.88;;;5.80;99.90;;;;;;5086959;28;20032;-84
2023/01/30 08:02:53;;;;;;;32.22;5.18;;;5.80;99.90;;;;;;5079901;28;20036;-84
2023/01/30 08:05:19;;;;;;;23.50;4.20;;;5.80;99.90;;;;;;5056362;28;20440;-85
2023/01/30 08:07:46;;;;;;;29.00;5.22;;;5.90;99.90;;;;;;5057030;28;20048;-84
2023/01/30 08:10:12;;;;;;;29.50;4.40;;;5.90;99.90;;;;;;5070210;28;20047;-83
2023/01/30 08:12:39;;;;;;;22.60;4.20;;;6.00;99.90;;;;;;5039799;28;20055;-84
2023/01/30 08:15:06;;;;;;;36.58;4.93;;;6.00;99.90;;;;;;5077438;28;20085;-84
2023/01/30 08:17:32;;;;;;;25.05;3.85;;;6.00;99.90;;;;;;5072741;28;20070;-85
2023/01/30 08:19:57;;;;;;;27.63;4.47;;;6.60;99.90;;;;;;5040018;28;20349;-84
2023/01/30 08:22:23;;;;;;;28.42;4.30;;;6.00;99.90;;;;;;5077756;28;20084;-84
2023/01/30 08:24:49;;;;;;;24.52;4.43;;;6.00;99.90;;;;;;5037986;28;20048;-84
2023/01/30 08:27:14;;;;;;;27.38;4.50;;;6.20;99.90;;;;;;5055304;28;20040;-84
2023/01/30 08:29:40;;;;;;;24.48;5.10;;;6.90;99.90;;;;;;5072373;28;20075;-84
2023/01/30 08:32:06;;;;;;;22.35;3.60;;;6.40;99.90;;;;;;5037950;28;20079;-84
2023/01/30 08:34:32;;;;;;;21.83;4.25;;;6.10;99.90;;;;;;5089675;28;20032;-84
2023/01/30 08:36:57;;;;;;;24.98;4.07;;;6.10;99.90;;;;;;5070885;28;20109;-84
2023/01/30 08:39:23;;;;;;;23.83;4.13;;;6.10;99.90;;;;;;5071408;28;20032;-84
2023/01/30 08:41:49;;;;;;;27.55;4.00;;;6.20;99.90;;;;;;5054456;28;20043;-85
2023/01/30 08:44:14;;;;;;;23.00;3.80;;;6.30;99.90;;;;;;5037192;28;20051;-84
2023/01/30 08:46:40;;;;;;;27.35;3.97;;;6.20;99.90;;;;;;5055814;28;20039;-85
2023/01/30 08:49:06;;;;;;;23.08;3.92;;;6.20;99.90;;;;;;5073896;28;20110;-85
2023/01/30 08:51:32;;;;;;;25.77;4.55;;;6.20;99.90;;;;;;5075002;28;20050;-85
2023/01/30 08:53:58;;;;;;;27.20;3.83;;;6.40;99.90;;;;;;5071835;28;20119;-84
2023/01/30 08:56:24;;;;;;;23.60;4.65;;;6.30;99.90;;;;;;5072831;28;20044;-84
2023/01/30 08:58:49;;;;;;;29.48;4.55;;;6.60;99.90;;;;;;5056107;28;20040;-85
2023/01/30 09:01:15;;;;;;;22.50;3.78;;;6.30;99.90;;;;;;5054902;28;20036;-85
2023/01/30 09:03:42;;;;;;;18.60;4.22;;;6.40;99.90;;;;;;5089686;28;20040;-85
2023/01/30 09:06:08;;;;;;;26.45;4.38;;;6.40;99.90;;;;;;5056242;28;20047;-85
2023/01/30 09:08:34;;;;;;;19.58;3.67;;;6.40;99.90;;;;;;5056271;28;21109;-84
2023/01/30 09:11:02;;;;;;;28.50;3.85;;;6.90;99.90;;;;;;5050121;28;20050;-84
2023/01/30 09:13:28;;;;;;;35.35;5.47;;;7.00;99.90;;;;;;5070902;28;20379;-84
2023/01/30 09:15:54;;;;;;;29.33;4.18;;;6.80;99.90;;;;;;5063629;28;20032;-85
2023/01/30 09:18:20;;;;;;;22.50;3.95;;;6.50;99.90;;;;;;5055190;28;20047;-84
2023/01/30 09:20:45;;;;;;;19.48;3.72;;;6.90;99.90;;;;;;5088179;28;20039;-85
2023/01/30 09:23:11;;;;;;;23.52;4.25;;;6.70;99.90;;;;;;5069894;28;20066;-84
2023/01/30 09:25:37;;;;;;;22.77;3.70;;;6.60;99.90;;;;;;5071685;28;20077;-84
2023/01/30 09:28:03;;;;;;;17.10;3.38;;;6.70;99.90;;;;;;5067881;28;20395;-85
2023/01/30 09:30:29;;;;;;;27.70;3.90;;;6.70;99.90;;;;;;5054949;28;20599;-85
2023/01/30 09:32:54;;;;;;;27.83;4.72;;;6.70;99.90;;;;;;5071746;28;20047;-84
2023/01/30 09:35:20;;;;;;;26.90;4.00;;;6.70;99.90;;;;;;5070119;28;20061;-84
2023/01/30 09:37:48;;;;;;;26.85;3.75;;;6.70;99.90;;;;;;5053725;28;20121;-84
2023/01/30 09:40:17;;;;;;;30.08;4.43;;;6.70;99.90;;;;;;5072773;28;20494;-83
2023/01/30 09:42:55;;;;;;;24.08;4.53;;;6.90;99.90;;;;;;5055776;28;20113;-83
2023/01/30 09:45:50;;;;;;;24.58;4.00;;;7.00;99.90;;;;;;5085187;28;20046;-84
2023/01/30 09:48:21;;;;;;;25.38;4.28;;;7.00;99.90;;;;;;5067558;28;20051;-83
2023/01/30 09:51:05;;;;;;;34.35;4.90;;;6.90;99.90;;;;;;5105608;28;20067;-83
2023/01/30 09:53:48;;;;;;;28.35;4.78;;;6.90;99.90;;;;;;5079555;28;20445;-83
2023/01/30 09:56:14;;;;;;;23.92;4.10;;;6.90;99.90;;;;;;5060412;28;20377;-83
2023/01/30 09:59:01;;;;;;;27.00;5.32;;;6.80;99.90;;;;;;5060883;28;20036;-84
2023/01/30 10:01:46;;;;;;;26.50;4.38;;;7.30;99.90;;;;;;5071525;28;20093;-84
2023/01/30 10:04:43;;;;;;;25.55;4.97;;;7.50;99.90;;;;;;5077094;28;20357;-84
2023/01/30 10:07:09;;;;;;;19.48;3.53;;;8.00;99.90;;;;;;5069796;28;20054;-84
2023/01/30 10:09:50;;;;;;;22.40;3.90;;;8.00;99.90;;;;;;5071097;28;20130;-84
2023/01/30 10:12:34;;;;;;;23.35;4.30;;;7.90;99.90;;;;;;5075684;28;20047;-83
2023/01/30 10:15:19;;;;;;;18.50;4.40;;;7.90;99.90;;;;;;5064079;28;20101;-84
2023/01/30 10:18:09;;;;;;;28.25;5.28;;;8.30;99.90;;;;;;5071563;28;20078;-83
2023/01/30 10:21:17;;;;;;;28.02;5.00;;;8.50;99.90;;;;;;5072174;28;20044;-84
2023/01/30 10:23:53;;;;;;;25.52;4.30;;;9.00;99.90;;;;;;5078649;28;20063;-84
2023/01/30 10:26:23;;;;;;;23.67;4.85;;;9.50;99.90;;;;;;5076906;28;20048;-83
2023/01/30 10:29:00;;;;;;;27.60;5.15;;;9.90;99.90;;;;;;5088739;28;20051;-83
2023/01/30 10:31:31;;;;;;;27.08;4.70;;;10.30;99.90;;;;;;5071546;28;20262;-84
2023/01/30 10:34:03;;;;;;;26.80;4.68;;;10.70;99.90;;;;;;5071163;28;20080;-84
2023/01/30 10:36:47;;;;;;;34.22;5.20;;;10.60;99.90;;;;;;5079958;28;20036;-84
2023/01/30 10:39:49;;;;;;;23.52;5.03;;;10.60;99.90;;;;;;5087782;28;20063;-84
2023/01/30 10:42:22;;;;;;;32.15;4.78;;;10.40;99.90;;;;;;5077835;28;20114;-84
2023/01/30 10:44:48;;;;;;;27.73;4.88;;;9.70;99.90;;;;;;5075489;28;20040;-83
2023/01/30 10:47:53;;;;;;;25.20;4.53;;;9.40;99.90;;;;;;5058050;28;20040;-83
2023/01/30 10:50:29;;;;;;;26.08;4.75;;;9.00;99.90;;;;;;5041468;28;20076;-84
2023/01/30 10:53:23;;;;;;;27.45;4.40;;;8.90;99.90;;;;;;5018330;28;20045;-84
2023/01/30 10:56:14;;;;;;;24.75;5.60;;;8.70;99.90;;;;;;5057248;28;20543;-84
2023/01/30 10:58:59;;;;;;;22.95;4.13;;;8.70;99.90;;;;;;5090173;28;20051;-84
2023/01/30 11:01:42;;;;;;;25.30;4.82;;;8.70;99.90;;;;;;5087521;28;20065;-84
2023/01/30 11:04:51;;;;;;;25.20;4.28;;;8.50;99.90;;;;;;5095453;28;20028;-83
2023/01/30 11:07:16;;;;;;;20.90;4.22;;;8.60;99.90;;;;;;5065990;28;20171;-83
2023/01/30 11:09:45;;;;;;;24.38;4.00;;;8.50;99.90;;;;;;5039858;28;20531;-83
2023/01/30 11:12:11;;;;;;;24.65;4.47;;;8.60;99.90;;;;;;5067777;28;20492;-84
2023/01/30 11:14:53;;;;;;;27.65;4.43;;;8.70;99.90;;;;;;5080141;28;20043;-83
2023/01/30 11:17:27;;;;;;;25.80;4.75;;;8.70;99.90;;;;;;5073542;28;20043;-83
2023/01/30 11:20:00;;;;;;;22.45;4.63;;;8.80;99.90;;;;;;5073676;28;20165;-84
2023/01/30 11:22:29;;;;;;;25.30;5.40;;;8.80;99.90;;;;;;5074065;28;20047;-82
2023/01/30 11:25:05;;;;;;;25.80;5.15;;;8.90;99.90;;;;;;5071031;28;20059;-83
2023/01/30 11:27:33;;;;;;;31.38;4.82;;;8.90;99.90;;;;;;5075981;28;20055;-84
2023/01/30 11:30:16;;;;;;;22.75;4.43;;;8.80;99.90;;;;;;5074346;28;20064;-82
2023/01/30 11:32:45;;;;;;;31.02;4.35;;;8.70;99.90;;;;;;5089401;28;20122;-83
2023/01/30 11:35:22;;;;;;;28.48;6.13;;;8.60;99.90;;;;;;5088079;28;20527;-81
2023/01/30 11:37:50;;;;;;;25.33;4.97;;;8.60;99.90;;;;;;5108039;28;20713;-82
2023/01/30 11:40:24;;;;;;;27.30;5.53;;;8.60;99.90;;;;;;5073463;28;20047;-82
2023/01/30 11:42:52;;;;;;;20.90;3.95;;;8.60;99.90;;;;;;5073952;28;20051;-82
2023/01/30 11:45:19;;;;;;;27.35;4.78;;;8.90;99.90;;;;;;5074558;28;20072;-83
2023/01/30 11:47:53;;;;;;;28.25;4.78;;;8.90;99.90;;;;;;5091449;28;20039;-82
2023/01/30 11:50:22;;;;;;;26.13;5.18;;;8.90;99.90;;;;;;5072261;28;20051;-82
2023/01/30 11:52:48;;;;;;;27.25;4.40;;;8.80;99.90;;;;;;5072714;28;20044;-82
2023/01/30 11:55:17;;;;;;;26.95;4.70;;;8.80;99.90;;;;;;5072095;28;20091;-83
2023/01/30 11:57:49;;;;;;;29.00;5.22;;;8.80;99.90;;;;;;5072347;28;20104;-83
2023/01/30 12:00:26;;;;;;;34.58;5.43;;;8.40;99.90;;;;;;5090691;28;20036;-82
2023/01/30 12:02:53;;;;;;;27.50;4.90;;;8.90;99.90;;;;;;5072123;28;20048;-82
2023/01/30 12:05:35;;;;;;;18.45;3.88;;;8.80;99.90;;;;;;5083268;28;20040;-84
2023/01/30 12:08:19;;;;;;;23.00;4.03;;;8.90;99.90;;;;;;5065351;28;20036;-84
2023/01/30 12:10:47;;;;;;;22.08;4.28;;;9.10;99.90;;;;;;5073027;28;20047;-84
2023/01/30 12:13:42;;;;;;;24.08;4.53;;;9.20;99.90;;;;;;5072047;28;20040;-83
2023/01/30 12:16:27;;;;;;;19.55;4.18;;;9.00;99.90;;;;;;5069532;28;20073;-84
2023/01/30 12:19:22;;;;;;;22.90;4.25;;;8.80;99.90;;;;;;5093665;28;20040;-84
2023/01/30 12:22:10;;;;;;;21.35;4.68;;;8.60;99.90;;;;;;5086164;28;20036;-83
2023/01/30 12:24:57;;;;;;;19.23;3.85;;;8.40;99.90;;;;;;5070741;28;20032;-85
2023/01/30 12:27:47;;;;;;;22.73;4.22;;;8.40;99.90;;;;;;5073444;28;20177;-84
2023/01/30 12:30:23;;;;;;;25.67;4.55;;;8.40;99.90;;;;;;5094106;28;20122;-85
2023/01/30 12:32:58;;;;;;;;;;;8.20;99.90;;;;;;5073495;28;20093;-83
2023/01/30 12:35:38;;;;;;;14.38;3.13;;;7.90;99.90;;;;;;5089574;28;20559;-83
2023/01/30 12:38:29;;;;;;;16.13;2.67;;;7.60;99.90;;;;;;5080861;28;20092;-83
2023/01/30 12:41:18;;;;;;;14.07;2.38;;;7.30;99.90;;;;;;5073349;28;20985;-83
2023/01/30 12:44:10;;;;;;;14.27;2.75;;;7.20;99.90;;;;;;5073871;28;20039;-83
2023/01/30 12:46:45;;;;;;;9.57;1.85;;;7.10;99.90;;;;;;5091702;28;20074;-82
2023/01/30 12:49:31;;;;;;;15.00;3.20;;;7.00;99.90;;;;;;5082312;28;20040;-83
2023/01/30 12:52:13;;;;;;;14.77;2.53;;;7.20;99.90;;;;;;5073175;28;20059;-83
2023/01/30 12:54:59;;;;;;;13.52;2.75;;;7.50;99.90;;;;;;5091697;28;20044;-83
2023/01/30 12:57:46;;;;;;;13.10;2.67;;;7.60;99.90;;;;;;5075176;28;20115;-83
2023/01/30 13:00:50;;;;;;;15.20;3.25;;;7.70;99.90;;;;;;5073434;28;20036;-85
2023/01/30 13:03:52;;;;;;;21.02;3.47;;;8.10;99.90;;;;;;5073911;28;20169;-83
2023/01/30 13:06:42;;;;;;;22.20;3.78;;;8.70;99.90;;;;;;5059983;28;20051;-83
2023/01/30 13:09:13;;;;;;;23.52;4.03;;;9.30;99.90;;;;;;5071613;28;20044;-83
2023/01/30 13:12:13;;;;;;;19.98;4.15;;;9.60;99.90;;;;;;5063648;28;20075;-83